Time;durP1;ratioP1;P1;durP2;ratioP2;P2;SDS_P1;SDS_P2;PMS_P1;PMS_P2;Temp;Humidity;BMP_temperature;BMP_pressure;BME280_temperature;BME280_humidity;BME280_pressure;Samples;Min_cycle;Max_cycle;Signal;HPM_P1;HPM_P2
2021/08/23 00:03:22;;;;;;;6.22;3.10;;;14.60;99.90;;;;;;20824580;28;20076;-79
2021/08/23 00:13:23;;;;;;;6.43;3.00;;;14.50;99.90;;;;;;20828703;28;20084;-79
2021/08/23 00:23:25;;;;;;;4.43;2.80;;;14.30;99.90;;;;;;20832753;28;20376;-79
2021/08/23 00:33:26;;;;;;;7.43;2.95;;;14.40;99.90;;;;;;20873724;28;20033;-79
2021/08/23 00:43:27;;;;;;;5.70;2.80;;;14.30;99.90;;;;;;20922470;28;20063;-79
2021/08/23 00:53:28;;;;;;;4.23;2.53;;;13.80;99.90;;;;;;20907581;28;20029;-79
2021/08/23 01:03:40;;;;;;;4.27;2.90;;;13.50;99.90;;;;;;20910294;28;20071;-79
2021/08/23 01:13:47;;;;;;;5.30;3.03;;;13.50;99.90;;;;;;20904060;28;20044;-79
2021/08/23 01:23:48;;;;;;;8.13;3.13;;;13.40;99.90;;;;;;20921711;28;20143;-79
2021/08/23 01:33:50;;;;;;;7.10;3.10;;;13.30;99.90;;;;;;20887134;28;20028;-79
2021/08/23 01:43:51;;;;;;;5.63;2.67;;;13.20;99.90;;;;;;20919629;28;20037;-78
2021/08/23 01:53:52;;;;;;;5.70;2.50;;;13.40;99.90;;;;;;20901149;28;20044;-79
2021/08/23 02:03:53;;;;;;;6.43;2.73;;;12.90;99.90;;;;;;20918425;28;20025;-79
2021/08/23 02:13:54;;;;;;;4.50;2.60;;;12.80;99.90;;;;;;20900980;28;20041;-79
2021/08/23 02:23:55;;;;;;;11.13;3.57;;;12.70;99.90;;;;;;20897378;28;20033;-79
2021/08/23 02:33:56;;;;;;;5.27;2.93;;;12.50;99.90;;;;;;20914381;28;20097;-79
2021/08/23 02:43:56;;;;;;;9.97;4.07;;;12.50;99.90;;;;;;20912449;28;20499;-79
2021/08/23 02:53:57;;;;;;;8.30;3.73;;;12.40;99.90;;;;;;20897535;28;20025;-78
2021/08/23 03:03:58;;;;;;;13.80;4.10;;;12.60;99.90;;;;;;20896167;28;20046;-78
2021/08/23 03:14:00;;;;;;;27.08;5.75;;;12.50;99.90;;;;;;20904751;28;20119;-78
2021/08/23 03:24:01;;;;;;;42.03;5.67;;;12.50;99.90;;;;;;20898806;28;20037;-79
2021/08/23 03:34:02;;;;;;;40.57;5.93;;;12.70;99.90;;;;;;20930020;28;20657;-79
2021/08/23 03:44:03;;;;;;;16.63;5.13;;;12.40;99.90;;;;;;20912447;28;20029;-78
2021/08/23 03:54:04;;;;;;;26.50;5.28;;;12.50;99.90;;;;;;20931582;28;20036;-78
2021/08/23 04:04:05;;;;;;;12.57;4.73;;;12.50;99.90;;;;;;20913239;28;20526;-79
2021/08/23 04:14:06;;;;;;;12.70;4.77;;;12.70;99.90;;;;;;20913217;28;20068;-79
2021/08/23 04:24:07;;;;;;;147.30;8.37;;;13.00;99.90;;;;;;20931067;28;20033;-79
2021/08/23 04:34:08;;;;;;;18.20;5.07;;;12.90;99.90;;;;;;20950541;22;20056;-78
2021/08/23 04:44:10;;;;;;;13.02;4.20;;;13.00;99.90;;;;;;20998625;28;20437;-78
2021/08/23 04:54:10;;;;;;;8.27;4.53;;;13.00;99.90;;;;;;20998461;28;20040;-76
2021/08/23 05:04:11;;;;;;;27.80;4.90;;;12.80;99.90;;;;;;20995629;28;20381;-78
2021/08/23 05:14:12;;;;;;;10.60;4.37;;;12.90;99.90;;;;;;20997731;28;20391;-77
2021/08/23 05:24:13;;;;;;;7.70;4.70;;;13.10;99.90;;;;;;20980447;28;20029;-77
2021/08/23 05:34:14;;;;;;;6.13;4.60;;;13.10;99.90;;;;;;21002547;28;20036;-77
2021/08/23 05:44:15;;;;;;;92.77;5.90;;;13.30;99.90;;;;;;21078802;28;20397;-78
2021/08/23 05:54:16;;;;;;;8.70;5.83;;;13.30;99.90;;;;;;21090607;28;20103;-77
2021/08/23 06:04:19;;;;;;;15.70;5.43;;;13.60;99.90;;;;;;21076106;28;20059;-77
2021/08/23 06:14:20;;;;;;;9.68;6.05;;;13.80;99.90;;;;;;21076342;28;20032;-78
2021/08/23 06:24:22;;;;;;;11.67;5.20;;;14.00;99.90;;;;;;21056552;28;20466;-78
2021/08/23 06:34:23;;;;;;;8.05;5.28;;;14.40;99.90;;;;;;21064881;28;20498;-77
2021/08/23 06:44:24;;;;;;;9.80;5.10;;;14.70;99.90;;;;;;20990403;28;20035;-78
2021/08/23 06:54:25;;;;;;;;;;;15.00;99.90;;;;;;21007508;28;20038;-78
2021/08/23 07:04:26;;;;;;;8.23;5.57;;;14.80;99.90;;;;;;21006134;28;19943;-78
2021/08/23 07:14:27;;;;;;;6.43;4.40;;;15.30;99.90;;;;;;21007722;28;20059;-77
2021/08/23 07:24:28;;;;;;;6.33;4.70;;;15.70;99.90;;;;;;21013615;28;20086;-78
2021/08/23 07:34:28;;;;;;;7.63;4.67;;;16.30;99.90;;;;;;21013537;28;20056;-76
2021/08/23 07:44:29;;;;;;;8.63;4.40;;;16.40;99.90;;;;;;21086667;28;20032;-78
2021/08/23 07:54:32;;;;;;;8.33;4.20;;;17.10;99.90;;;;;;21085773;28;20024;-78
2021/08/23 08:04:33;;;;;;;5.78;2.50;;;19.20;99.90;;;;;;21104384;28;20482;-78
2021/08/23 08:14:35;;;;;;;3.03;1.67;;;19.50;99.90;;;;;;21137420;28;20050;-78
2021/08/23 08:24:37;;;;;;;2.75;1.45;;;20.10;99.90;;;;;;21059927;28;20093;-79
2021/08/23 08:34:38;;;;;;;10.57;2.25;;;19.50;99.90;;;;;;21063883;28;20067;-78
2021/08/23 08:44:39;;;;;;;8.17;2.03;;;19.90;99.90;;;;;;21062860;28;20052;-78
2021/08/23 08:54:41;;;;;;;4.60;1.90;;;20.50;99.90;;;;;;21062808;28;20052;-78
2021/08/23 09:04:42;;;;;;;6.15;2.17;;;20.00;99.90;;;;;;21062119;28;20717;-78
2021/08/23 09:14:54;;;;;;;2.90;1.43;;;20.30;99.90;;;;;;21057154;28;20028;-79
2021/08/23 09:25:06;;;;;;;4.88;2.03;;;20.60;99.90;;;;;;21048686;28;20036;-79
2021/08/23 09:35:07;;;;;;;3.30;1.42;;;20.60;99.90;;;;;;21059970;28;20044;-79
2021/08/23 09:45:18;;;;;;;2.50;1.38;;;20.90;99.90;;;;;;20990035;28;20032;-80
2021/08/23 09:55:19;;;;;;;4.10;1.43;;;23.70;99.90;;;;;;20990799;28;20029;-81
2021/08/23 10:05:20;;;;;;;3.77;1.50;;;21.80;99.90;;;;;;21017121;28;20039;-81
2021/08/23 10:15:21;;;;;;;;;;;22.30;99.90;;;;;;21000232;28;20064;-79
2021/08/23 10:25:23;;;;;;;2.27;1.33;;;22.60;99.90;;;;;;20999860;28;20393;-79
2021/08/23 10:35:25;;;;;;;3.75;1.40;;;22.90;99.90;;;;;;21004277;28;20274;-80
2021/08/23 10:45:37;;;;;;;2.80;1.30;;;23.40;99.90;;;;;;21069536;28;20040;-79
2021/08/23 10:55:37;;;;;;;3.60;1.77;;;21.10;99.90;;;;;;21086961;28;20054;-79
2021/08/23 11:05:38;;;;;;;2.40;1.30;;;21.80;99.90;;;;;;21071553;28;20410;-80
2021/08/23 11:15:40;;;;;;;2.92;1.42;;;22.30;99.90;;;;;;21068479;28;20095;-78
2021/08/23 11:25:47;;;;;;;6.18;1.40;;;23.50;99.90;;;;;;21050928;28;20069;-81
2021/08/23 11:35:47;;;;;;;4.53;1.55;;;24.50;99.90;;;;;;21075199;28;20040;-79
2021/08/23 11:45:48;;;;;;;2.93;1.40;;;22.10;99.90;;;;;;21077492;28;20091;-79
2021/08/23 11:55:50;;;;;;;11.77;1.80;;;21.30;99.90;;;;;;21082345;28;20111;-77
2021/08/23 12:05:51;;;;;;;3.30;1.50;;;21.20;99.90;;;;;;21080603;28;20027;-79
2021/08/23 12:16:03;;;;;;;3.50;1.27;;;21.00;99.90;;;;;;21078714;28;20036;-77
2021/08/23 12:26:06;;;;;;;2.90;1.15;;;22.00;99.90;;;;;;21043028;28;20387;-76
2021/08/23 12:36:07;;;;;;;4.18;1.20;;;24.50;99.90;;;;;;20990550;28;20052;-77
2021/08/23 12:46:08;;;;;;;4.97;1.20;;;23.80;99.90;;;;;;21005502;28;20107;-77
2021/08/23 12:56:08;;;;;;;4.93;1.60;;;24.30;99.90;;;;;;20993294;28;20371;-78
2021/08/23 13:06:09;;;;;;;;;;;24.80;99.90;;;;;;20993805;28;20032;-78
2021/08/23 13:16:10;;;;;;;3.40;1.00;;;24.30;99.90;;;;;;20995211;28;19912;-78
2021/08/23 13:26:11;;;;;;;1.13;0.55;;;24.10;99.90;;;;;;20989356;28;20025;-79
2021/08/23 13:36:12;;;;;;;;;;;24.30;99.90;;;;;;21014796;28;20089;-78
2021/08/23 13:46:14;;;;;;;2.70;1.07;;;23.40;99.90;;;;;;21072520;28;19916;-78
2021/08/23 13:56:15;;;;;;;0.90;0.68;;;24.00;99.90;;;;;;21070997;28;20124;-79
2021/08/23 14:06:15;;;;;;;;;;;24.30;99.90;;;;;;21053289;28;20056;-78
2021/08/23 14:16:17;;;;;;;1.40;0.80;;;23.90;99.90;;;;;;21053717;28;19959;-78
2021/08/23 14:26:19;;;;;;;0.80;0.37;;;23.40;99.90;;;;;;21084367;28;20035;-79
2021/08/23 14:36:20;;;;;;;2.05;0.52;;;24.10;99.90;;;;;;21046132;28;20032;-77
2021/08/23 14:46:21;;;;;;;2.07;0.83;;;23.50;99.90;;;;;;20986226;28;20036;-78
2021/08/23 14:56:22;;;;;;;1.07;0.73;;;23.10;99.90;;;;;;20985601;28;20076;-77
2021/08/23 15:06:23;;;;;;;1.43;0.83;;;23.30;99.90;;;;;;20988597;28;20772;-79
2021/08/23 15:16:24;;;;;;;2.97;1.08;;;23.20;99.90;;;;;;20999003;28;20032;-78
2021/08/23 15:26:24;;;;;;;4.10;0.90;;;22.60;99.90;;;;;;21000776;28;20517;-79
2021/08/23 15:36:25;;;;;;;1.07;0.80;;;22.20;99.90;;;;;;21026882;28;20118;-77
2021/08/23 15:46:26;;;;;;;1.97;0.90;;;21.70;99.90;;;;;;21072346;28;20127;-76
2021/08/23 15:56:27;;;;;;;2.93;0.87;;;21.50;99.90;;;;;;21072884;28;20042;-80
2021/08/23 16:06:28;;;;;;;2.83;1.13;;;21.20;99.90;;;;;;21080008;28;20046;-78
2021/08/23 16:16:29;;;;;;;1.80;1.10;;;20.90;99.90;;;;;;21095784;28;20036;-80
2021/08/23 16:26:30;;;;;;;2.08;0.80;;;20.50;99.90;;;;;;21101020;28;20115;-78
2021/08/23 16:36:31;;;;;;;3.07;1.20;;;20.40;99.90;;;;;;21048488;28;20036;-77
2021/08/23 16:46:31;;;;;;;3.00;1.40;;;20.40;99.90;;;;;;21016369;28;20111;-78
2021/08/23 16:56:32;;;;;;;1.33;0.77;;;20.10;99.90;;;;;;21022455;28;20040;-77
2021/08/23 17:06:33;;;;;;;2.87;0.97;;;20.00;99.90;;;;;;21005591;28;20032;-78
2021/08/23 17:16:34;;;;;;;2.83;1.07;;;19.90;99.90;;;;;;21006763;28;20260;-78
2021/08/23 17:26:35;;;;;;;4.60;1.47;;;19.80;99.90;;;;;;21002807;28;20051;-78
2021/08/23 17:36:36;;;;;;;12.00;1.50;;;19.40;99.90;;;;;;21048070;28;20028;-76
2021/08/23 17:46:36;;;;;;;2.10;1.10;;;19.40;99.90;;;;;;21088030;28;20070;-78
2021/08/23 17:56:37;;;;;;;3.90;1.30;;;19.20;99.90;;;;;;21098190;28;20058;-79
2021/08/23 18:06:38;;;;;;;2.40;1.30;;;19.20;99.90;;;;;;21096983;28;20043;-79
2021/08/23 18:16:39;;;;;;;2.53;1.20;;;18.90;99.90;;;;;;21095268;28;20030;-79
2021/08/23 18:26:40;;;;;;;4.13;1.13;;;18.70;99.90;;;;;;21095708;28;20053;-78
2021/08/23 18:36:40;;;;;;;1.67;0.90;;;18.10;99.90;;;;;;21094609;28;20024;-78
2021/08/23 18:46:41;;;;;;;2.00;1.20;;;17.80;99.90;;;;;;21112847;28;20328;-77
2021/08/23 18:56:45;;;;;;;2.57;1.67;;;17.30;99.90;;;;;;21102194;28;20032;-78
2021/08/23 19:06:45;;;;;;;3.60;1.55;;;17.00;99.90;;;;;;21119311;28;20028;-77
2021/08/23 19:16:47;;;;;;;4.30;1.80;;;16.70;99.90;;;;;;21112761;28;20286;-78
2021/08/23 19:26:48;;;;;;;;;;;16.70;99.90;;;;;;21111520;28;20107;-77
2021/08/23 19:36:49;;;;;;;3.03;1.73;;;16.80;99.90;;;;;;21088342;28;20366;-78
2021/08/23 19:46:50;;;;;;;3.60;1.80;;;16.80;99.90;;;;;;21033072;28;20039;-78
2021/08/23 19:56:54;;;;;;;2.47;1.70;;;16.90;99.90;;;;;;21023286;28;20055;-78
2021/08/23 20:06:55;;;;;;;4.85;1.55;;;16.70;99.90;;;;;;21018624;28;20024;-78
2021/08/23 20:16:56;;;;;;;3.77;2.03;;;16.60;99.90;;;;;;21019964;28;20093;-77
2021/08/23 20:26:58;;;;;;;6.13;1.83;;;16.20;99.90;;;;;;21018543;28;20033;-79
2021/08/23 20:47:21;;;;;;;3.05;1.75;;;16.00;99.90;;;;;;21095178;28;20028;-78
2021/08/23 20:57:22;;;;;;;2.72;1.45;;;16.10;99.90;;;;;;21089041;28;20064;-77
2021/08/23 21:07:23;;;;;;;3.40;1.93;;;16.00;99.90;;;;;;21092798;28;20398;-77
2021/08/23 21:17:24;;;;;;;3.67;1.50;;;16.00;99.90;;;;;;21082914;28;20036;-76
2021/08/23 21:27:25;;;;;;;1.83;1.47;;;15.80;99.90;;;;;;21063784;28;20486;-78
2021/08/23 21:37:25;;;;;;;6.57;1.60;;;15.40;99.90;;;;;;21095745;28;20354;-79
2021/08/23 21:47:26;;;;;;;3.63;1.83;;;15.00;99.90;;;;;;21091538;28;20074;-79
2021/08/23 21:57:27;;;;;;;3.70;1.53;;;14.90;99.90;;;;;;21074381;28;20038;-78
2021/08/23 22:07:28;;;;;;;2.47;1.40;;;14.80;99.90;;;;;;21076429;28;20036;-79
2021/08/23 22:17:29;;;;;;;2.67;1.70;;;14.70;99.90;;;;;;21073026;28;20028;-78
2021/08/23 22:27:30;;;;;;;6.37;1.70;;;14.50;99.90;;;;;;21069382;28;20092;-78
2021/08/23 22:37:30;;;;;;;2.13;1.60;;;14.40;99.90;;;;;;21069999;22;20040;-79
2021/08/23 22:47:31;;;;;;;3.10;1.80;;;14.60;99.90;;;;;;21008428;28;20036;-79
2021/08/23 22:57:32;;;;;;;2.83;1.77;;;14.30;99.90;;;;;;21000898;28;20028;-79
2021/08/23 23:07:33;;;;;;;3.23;1.90;;;14.50;99.90;;;;;;21012213;28;20120;-79
2021/08/23 23:17:34;;;;;;;5.93;2.77;;;14.70;99.90;;;;;;20993594;28;20032;-78
2021/08/23 23:27:36;;;;;;;6.57;3.00;;;14.60;99.90;;;;;;20994021;28;20097;-77
2021/08/23 23:37:38;;;;;;;5.95;3.20;;;14.60;99.90;;;;;;21034992;28;20055;-79
2021/08/23 23:47:40;;;;;;;;;;;14.80;99.90;;;;;;21095345;28;20024;-79
2021/08/23 23:57:41;;;;;;;4.97;2.78;;;14.90;99.90;;;;;;21109338;28;19963;-79
